Time;durP1;ratioP1;P1;durP2;ratioP2;P2;SDS_P1;SDS_P2;PMS_P1;PMS_P2;Temp;Humidity;BMP_temperature;BMP_pressure;BME280_temperature;BME280_humidity;BME280_pressure;Samples;Min_cycle;Max_cycle;Signal;HPM_P1;HPM_P2
2021/04/25 00:01:28;;;;;;;16.77;12.10;;;10.20;67.30;;;;;;5113408;28;20240;-41
2021/04/25 00:03:55;;;;;;;14.70;12.25;;;10.20;67.30;;;;;;5113558;28;20618;-41
2021/04/25 00:06:22;;;;;;;17.40;11.88;;;10.20;67.30;;;;;;5113261;28;20337;-41
2021/04/25 00:08:49;;;;;;;21.02;12.07;;;10.10;67.40;;;;;;5113413;28;20206;-42
2021/04/25 00:11:18;;;;;;;11.82;10.63;;;10.10;67.50;;;;;;5113712;28;20209;-43
2021/04/25 00:13:44;;;;;;;15.85;11.45;;;10.10;67.70;;;;;;5113346;28;20210;-43
2021/04/25 00:16:14;;;;;;;13.45;10.68;;;10.00;67.80;;;;;;5113262;28;20210;-41
2021/04/25 00:18:42;;;;;;;14.93;10.90;;;10.00;68.00;;;;;;5113423;27;20615;-40
2021/04/25 00:21:10;;;;;;;15.23;10.85;;;9.90;68.20;;;;;;5113065;28;20218;-41
2021/04/25 00:23:38;;;;;;;14.15;10.25;;;9.90;68.40;;;;;;5113317;27;20586;-41
2021/04/25 00:26:04;;;;;;;14.80;10.27;;;9.90;68.60;;;;;;5113390;28;20297;-41
2021/04/25 00:28:32;;;;;;;13.75;10.55;;;9.80;69.00;;;;;;5113281;28;20206;-41
2021/04/25 00:30:59;;;;;;;13.65;10.40;;;9.70;69.20;;;;;;5113243;28;20212;-41
2021/04/25 00:33:26;;;;;;;17.83;11.25;;;9.60;69.50;;;;;;5113106;28;20242;-40
2021/04/25 00:35:55;;;;;;;14.40;10.35;;;9.60;70.70;;;;;;5112840;28;20301;-41
2021/04/25 00:38:22;;;;;;;13.43;11.02;;;9.50;70.30;;;;;;5112835;28;20309;-40
2021/04/25 00:40:49;;;;;;;11.88;9.73;;;9.40;70.60;;;;;;5112851;28;20232;-40
2021/04/25 00:43:17;;;;;;;12.63;9.93;;;9.40;70.90;;;;;;5112731;28;20723;-41
2021/04/25 00:45:45;;;;;;;13.35;9.68;;;9.30;71.20;;;;;;5112830;28;20206;-41
2021/04/25 00:48:12;;;;;;;11.32;9.80;;;9.30;71.60;;;;;;5112819;28;20296;-41
2021/04/25 00:50:39;;;;;;;11.60;9.05;;;9.20;71.80;;;;;;5112572;28;20634;-41
2021/04/25 00:53:06;;;;;;;13.50;9.23;;;9.20;72.20;;;;;;5112307;28;20292;-41
2021/04/25 00:55:34;;;;;;;12.45;9.07;;;9.20;72.60;;;;;;5112745;28;20238;-41
2021/04/25 00:58:03;;;;;;;11.05;9.25;;;9.10;72.70;;;;;;5112677;28;20253;-41
2021/04/25 01:00:31;;;;;;;13.07;8.77;;;9.10;73.00;;;;;;5112591;28;20260;-40
2021/04/25 01:03:01;;;;;;;10.73;8.45;;;9.00;73.30;;;;;;5112553;28;20214;-40
2021/04/25 01:05:29;;;;;;;13.55;9.02;;;9.00;73.50;;;;;;5112377;28;20244;-40
2021/04/25 01:07:55;;;;;;;10.25;8.48;;;8.90;73.90;;;;;;5112723;28;20212;-40
2021/04/25 01:10:22;;;;;;;11.63;8.77;;;8.90;74.10;;;;;;5112719;28;20268;-41
2021/04/25 01:12:50;;;;;;;11.18;8.98;;;8.90;74.50;;;;;;5112487;28;20309;-41
2021/04/25 01:15:18;;;;;;;10.18;8.25;;;8.80;74.70;;;;;;5112553;28;20285;-40
2021/04/25 01:17:47;;;;;;;13.20;8.80;;;8.80;75.10;;;;;;5112502;28;20213;-41
2021/04/25 01:20:17;;;;;;;13.60;8.65;;;8.80;75.90;;;;;;5112245;28;20717;-41
2021/04/25 01:22:45;;;;;;;11.30;8.48;;;8.80;75.60;;;;;;5112540;28;20633;-41
2021/04/25 01:25:14;;;;;;;13.73;8.75;;;8.80;75.70;;;;;;5112317;28;20743;-40
2021/04/25 01:27:41;;;;;;;9.70;8.27;;;8.80;75.70;;;;;;5112186;28;20210;-40
2021/04/25 01:30:11;;;;;;;11.27;8.48;;;8.80;76.10;;;;;;5112303;28;20236;-40
2021/04/25 01:32:40;;;;;;;10.18;8.13;;;8.80;76.40;;;;;;5112430;28;20293;-40
2021/04/25 01:35:09;;;;;;;14.82;8.60;;;8.70;76.80;;;;;;5112601;28;20210;-41
2021/04/25 01:37:36;;;;;;;12.40;8.55;;;8.70;76.90;;;;;;5112486;28;20272;-40
2021/04/25 01:40:06;;;;;;;14.95;10.05;;;8.70;77.40;;;;;;5112206;28;20216;-40
2021/04/25 01:42:33;;;;;;;11.90;8.77;;;8.70;77.50;;;;;;5112232;28;20230;-40
2021/04/25 01:45:01;;;;;;;11.98;8.90;;;8.70;77.60;;;;;;5111989;28;20300;-40
2021/04/25 01:47:28;;;;;;;11.70;9.68;;;8.80;77.90;;;;;;5112238;28;20233;-40
2021/04/25 01:49:55;;;;;;;16.00;12.25;;;8.70;78.10;;;;;;5112313;28;20240;-41
2021/04/25 01:52:22;;;;;;;13.10;9.50;;;8.70;78.40;;;;;;5112048;28;20289;-40
2021/04/25 01:54:48;;;;;;;10.95;7.47;;;8.70;78.70;;;;;;5112069;28;20301;-40
2021/04/25 01:57:16;;;;;;;12.90;8.65;;;8.70;79.00;;;;;;5112085;28;20578;-40
2021/04/25 01:59:43;;;;;;;11.52;9.00;;;8.70;79.20;;;;;;5112331;28;20289;-40
2021/04/25 02:02:10;;;;;;;10.32;8.43;;;8.70;79.40;;;;;;5112096;28;20332;-40
2021/04/25 02:04:37;;;;;;;12.48;8.82;;;8.70;79.60;;;;;;5112724;28;20206;-42
2021/04/25 02:07:04;;;;;;;11.98;9.13;;;8.70;80.00;;;;;;5115922;28;20305;-40
2021/04/25 02:09:31;;;;;;;12.13;8.45;;;8.60;80.30;;;;;;5115787;28;20297;-41
2021/04/25 02:11:59;;;;;;;11.95;8.70;;;8.60;80.80;;;;;;5115827;28;20679;-41
2021/04/25 02:14:27;;;;;;;11.27;8.48;;;8.50;81.30;;;;;;5115963;28;20252;-41
2021/04/25 02:16:54;;;;;;;11.57;9.15;;;8.50;81.80;;;;;;5115681;28;20256;-41
2021/04/25 02:19:21;;;;;;;15.38;9.68;;;8.40;82.20;;;;;;5115567;28;20206;-41
2021/04/25 02:21:48;;;;;;;10.90;7.43;;;8.40;82.50;;;;;;5115720;28;20257;-41
2021/04/25 02:24:15;;;;;;;11.77;8.68;;;8.30;82.90;;;;;;5115521;28;20210;-41
2021/04/25 02:26:42;;;;;;;9.70;7.60;;;8.30;83.30;;;;;;5115444;28;20225;-41
2021/04/25 02:29:09;;;;;;;11.25;8.30;;;8.20;83.80;;;;;;5115515;28;20235;-41
2021/04/25 02:31:37;;;;;;;10.20;8.25;;;8.10;83.90;;;;;;5115307;28;20672;-41
2021/04/25 02:34:04;;;;;;;11.27;8.98;;;8.10;84.40;;;;;;5115516;28;20210;-41
2021/04/25 02:36:31;;;;;;;9.10;7.90;;;8.10;84.80;;;;;;5115360;28;20532;-41
2021/04/25 02:38:58;;;;;;;10.55;8.68;;;8.00;85.30;;;;;;5115164;28;20205;-41
2021/04/25 02:41:27;;;;;;;14.48;8.98;;;8.00;85.40;;;;;;5115286;28;20313;-41
2021/04/25 02:43:54;;;;;;;12.70;8.68;;;8.00;85.90;;;;;;5115246;28;20301;-42
2021/04/25 02:46:21;;;;;;;10.13;9.05;;;7.90;86.50;;;;;;5115158;28;20289;-41
2021/04/25 02:48:49;;;;;;;16.15;9.85;;;7.90;87.40;;;;;;5115112;28;20795;-40
2021/04/25 02:51:16;;;;;;;9.75;8.18;;;7.80;87.40;;;;;;5114849;28;20230;-40
2021/04/25 02:53:42;;;;;;;11.02;8.75;;;7.80;87.90;;;;;;5114637;28;20305;-40
2021/04/25 02:56:09;;;;;;;10.18;8.30;;;7.70;88.00;;;;;;5115042;28;20202;-40
2021/04/25 02:58:36;;;;;;;13.40;8.98;;;7.80;88.20;;;;;;5115030;28;20615;-40
2021/04/25 03:01:03;;;;;;;14.30;9.27;;;7.80;88.30;;;;;;5114836;28;20230;-40
2021/04/25 03:03:30;;;;;;;9.60;8.38;;;7.80;88.50;;;;;;5114633;28;20647;-40
2021/04/25 03:05:59;;;;;;;13.93;9.32;;;7.80;88.90;;;;;;5114581;28;20268;-40
2021/04/25 03:08:26;;;;;;;12.13;8.77;;;7.80;89.30;;;;;;5114918;28;20289;-41
2021/04/25 03:10:53;;;;;;;11.13;8.57;;;7.70;89.70;;;;;;5114824;28;20278;-40
2021/04/25 03:13:20;;;;;;;15.23;10.02;;;7.70;90.20;;;;;;5114400;28;20206;-41
2021/04/25 03:15:47;;;;;;;10.20;8.13;;;7.60;90.10;;;;;;5114098;28;20216;-40
2021/04/25 03:18:14;;;;;;;11.35;8.70;;;7.60;90.20;;;;;;5114507;28;20237;-40
2021/04/25 03:20:41;;;;;;;12.00;8.85;;;7.60;90.40;;;;;;5114295;28;20557;-41
2021/04/25 03:23:09;;;;;;;11.65;9.00;;;7.60;90.60;;;;;;5113439;28;20203;-40
2021/04/25 03:25:36;;;;;;;12.95;9.13;;;7.50;90.70;;;;;;5114549;28;20209;-40
2021/04/25 03:28:04;;;;;;;12.20;8.48;;;7.50;90.80;;;;;;5114484;28;20300;-40
2021/04/25 03:30:31;;;;;;;11.25;9.13;;;7.40;90.90;;;;;;5114610;28;20575;-41
2021/04/25 03:32:58;;;;;;;13.18;9.55;;;7.40;91.00;;;;;;5114272;28;20296;-40
2021/04/25 03:35:25;;;;;;;10.48;9.05;;;7.50;91.10;;;;;;5113949;28;20664;-40
2021/04/25 03:37:52;;;;;;;14.35;10.95;;;7.50;91.00;;;;;;5114170;28;20639;-41
2021/04/25 03:40:21;;;;;;;14.55;10.05;;;7.60;91.00;;;;;;5114229;28;20241;-41
2021/04/25 03:42:48;;;;;;;12.48;8.68;;;7.60;91.10;;;;;;5113994;28;20236;-40
2021/04/25 03:45:18;;;;;;;13.55;9.95;;;7.60;91.10;;;;;;5113311;28;20296;-40
2021/04/25 03:47:46;;;;;;;13.23;9.15;;;7.50;91.20;;;;;;5109915;28;20301;-40
2021/04/25 03:50:15;;;;;;;11.25;9.10;;;7.50;91.40;;;;;;5093456;28;20214;-40
2021/04/25 03:52:42;;;;;;;11.13;9.73;;;7.40;91.50;;;;;;5093387;28;20449;-41
2021/04/25 03:55:10;;;;;;;14.23;10.23;;;7.40;91.80;;;;;;5093361;28;20212;-40
2021/04/25 03:57:38;;;;;;;10.73;9.23;;;7.40;92.00;;;;;;5093250;28;20263;-40
2021/04/25 04:00:08;;;;;;;13.48;9.07;;;7.30;92.10;;;;;;5093423;28;20629;-40
2021/04/25 04:02:35;;;;;;;12.82;10.43;;;7.30;92.20;;;;;;5092730;28;20708;-40
2021/04/25 04:05:03;;;;;;;15.18;9.20;;;7.30;92.30;;;;;;5092467;28;20230;-40
2021/04/25 04:07:30;;;;;;;10.95;9.43;;;7.40;92.20;;;;;;5093039;28;20234;-40
2021/04/25 04:09:57;;;;;;;11.55;9.38;;;7.40;92.40;;;;;;5093054;28;20293;-40
2021/04/25 04:12:24;;;;;;;15.85;10.45;;;7.30;92.60;;;;;;5093202;28;20302;-40
2021/04/25 04:14:51;;;;;;;15.55;10.82;;;7.20;92.70;;;;;;5113365;28;20212;-41
2021/04/25 04:17:19;;;;;;;12.68;9.50;;;7.20;92.90;;;;;;5113691;28;20289;-42
2021/04/25 04:19:46;;;;;;;16.10;10.15;;;7.20;92.90;;;;;;5113508;28;20255;-39
2021/04/25 04:22:12;;;;;;;11.80;9.63;;;7.20;92.90;;;;;;5113345;28;20232;-40
2021/04/25 04:24:39;;;;;;;10.98;9.82;;;7.20;93.10;;;;;;5113334;28;20213;-39
2021/04/25 04:27:07;;;;;;;11.90;9.50;;;7.20;93.20;;;;;;5112637;28;20245;-39
2021/04/25 04:29:33;;;;;;;12.20;9.32;;;7.20;93.40;;;;;;5113145;28;20210;-39
2021/04/25 04:32:01;;;;;;;10.68;9.30;;;7.10;93.50;;;;;;5113059;28;20226;-39
2021/04/25 04:34:28;;;;;;;13.35;9.65;;;7.10;93.60;;;;;;5113198;28;20214;-39
2021/04/25 04:36:55;;;;;;;11.63;9.52;;;7.10;93.60;;;;;;5113123;28;20209;-40
2021/04/25 04:39:22;;;;;;;11.48;9.80;;;7.20;93.60;;;;;;5113084;28;20220;-40
2021/04/25 04:41:50;;;;;;;12.45;9.75;;;7.20;93.70;;;;;;5112876;28;20232;-40
2021/04/25 04:44:17;;;;;;;11.85;10.40;;;7.20;93.80;;;;;;5113149;28;20628;-40
2021/04/25 04:46:44;;;;;;;15.63;11.02;;;7.20;93.80;;;;;;5113126;28;20237;-40
2021/04/25 04:49:12;;;;;;;12.50;10.77;;;7.30;93.90;;;;;;5112872;28;20235;-40
2021/04/25 04:51:40;;;;;;;13.20;10.05;;;7.30;93.90;;;;;;5112744;28;20202;-38
2021/04/25 04:54:08;;;;;;;13.13;10.43;;;7.30;93.80;;;;;;5112616;28;20230;-38
2021/04/25 04:56:35;;;;;;;12.93;10.63;;;7.40;93.80;;;;;;5112662;28;20296;-38
2021/04/25 04:59:06;;;;;;;12.02;10.63;;;7.40;93.80;;;;;;5112740;28;20206;-39
2021/04/25 05:01:33;;;;;;;13.25;11.05;;;7.50;93.70;;;;;;5112884;28;20280;-39
2021/04/25 05:04:00;;;;;;;12.80;11.25;;;7.50;93.70;;;;;;5112730;28;20206;-39
2021/04/25 05:06:28;;;;;;;13.98;10.25;;;7.60;93.80;;;;;;5112719;28;20329;-39
2021/04/25 05:08:55;;;;;;;14.00;11.10;;;7.60;93.90;;;;;;5112530;28;20205;-39
2021/04/25 05:11:22;;;;;;;12.98;11.05;;;7.60;93.80;;;;;;5112833;28;20212;-41
2021/04/25 05:13:49;;;;;;;14.02;10.52;;;7.70;93.80;;;;;;5112684;28;20259;-40
2021/04/25 05:16:17;;;;;;;16.98;12.05;;;7.80;93.70;;;;;;5112677;28;20213;-41
2021/04/25 05:18:44;;;;;;;13.02;11.60;;;8.00;93.50;;;;;;5112421;28;20342;-43
2021/04/25 05:21:11;;;;;;;18.58;12.18;;;8.10;93.30;;;;;;5112336;28;20261;-45
2021/04/25 05:23:39;;;;;;;12.30;10.30;;;8.20;93.20;;;;;;5112195;28;20246;-43
2021/04/25 05:26:06;;;;;;;14.88;11.70;;;8.30;93.10;;;;;;5112528;28;20234;-42
2021/04/25 05:28:33;;;;;;;14.20;12.40;;;8.40;92.90;;;;;;5112481;28;20308;-41
2021/04/25 05:31:00;;;;;;;16.73;12.80;;;8.50;92.90;;;;;;5112309;28;20244;-42
2021/04/25 05:33:28;;;;;;;15.25;12.23;;;8.50;92.70;;;;;;5112298;28;20251;-41
2021/04/25 05:35:56;;;;;;;16.25;13.18;;;8.50;92.80;;;;;;5112171;28;20205;-41
2021/04/25 05:38:23;;;;;;;17.60;13.82;;;8.50;92.80;;;;;;5112782;28;20641;-41
2021/04/25 05:40:51;;;;;;;16.40;13.05;;;8.50;92.80;;;;;;5116607;28;20255;-41
2021/04/25 05:43:18;;;;;;;15.98;12.60;;;8.50;92.80;;;;;;5116293;28;20210;-43
2021/04/25 05:45:45;;;;;;;15.02;12.70;;;8.50;93.10;;;;;;5116445;27;20252;-42
2021/04/25 05:48:12;;;;;;;14.50;12.57;;;8.60;92.90;;;;;;5116268;27;20256;-42
2021/04/25 05:50:39;;;;;;;13.57;12.13;;;8.60;92.80;;;;;;5116185;28;20569;-42
2021/04/25 05:53:06;;;;;;;16.20;13.27;;;8.70;92.80;;;;;;5116648;28;20237;-42
2021/04/25 05:55:33;;;;;;;17.75;15.65;;;8.90;92.60;;;;;;5116193;27;20628;-41
2021/04/25 05:58:01;;;;;;;17.02;15.23;;;9.00;92.30;;;;;;5116335;28;20256;-42
2021/04/25 06:00:30;;;;;;;16.55;14.95;;;9.10;92.10;;;;;;5116096;28;20210;-45
2021/04/25 06:02:57;;;;;;;20.90;15.68;;;9.00;92.10;;;;;;5116101;28;20222;-43
2021/04/25 06:05:24;;;;;;;20.75;15.73;;;9.00;92.20;;;;;;5115680;28;20245;-40
2021/04/25 06:07:52;;;;;;;22.58;16.77;;;9.00;92.20;;;;;;5115806;28;20214;-41
2021/04/25 06:10:20;;;;;;;18.40;15.32;;;9.10;92.00;;;;;;5116050;28;20219;-41
2021/04/25 06:12:49;;;;;;;18.38;15.93;;;9.30;91.80;;;;;;5115989;28;20306;-41
2021/04/25 06:15:19;;;;;;;16.77;14.82;;;9.30;91.70;;;;;;5115758;28;20306;-40
2021/04/25 06:17:46;;;;;;;18.30;14.30;;;9.20;91.70;;;;;;5115780;28;20294;-40
2021/04/25 06:20:14;;;;;;;18.80;15.35;;;9.30;91.60;;;;;;5115585;28;20230;-41
2021/04/25 06:22:42;;;;;;;17.40;15.60;;;9.30;91.60;;;;;;5115632;28;20264;-40
2021/04/25 06:25:11;;;;;;;19.92;16.45;;;9.30;91.60;;;;;;5115577;28;20289;-40
2021/04/25 06:27:39;;;;;;;16.73;14.93;;;9.30;91.70;;;;;;5115538;28;20206;-40
2021/04/25 06:30:09;;;;;;;17.98;15.68;;;9.30;91.60;;;;;;5115399;27;20264;-40
2021/04/25 06:32:37;;;;;;;17.67;15.75;;;9.40;91.60;;;;;;5115588;28;20206;-40
2021/04/25 06:35:05;;;;;;;19.35;15.52;;;9.50;91.50;;;;;;5115673;28;20206;-40
2021/04/25 06:37:33;;;;;;;18.58;16.60;;;9.50;91.50;;;;;;5115458;28;20225;-40
2021/04/25 06:40:06;;;;;;;19.55;16.80;;;9.50;91.40;;;;;;5115496;28;20301;-40
2021/04/25 06:42:33;;;;;;;20.02;15.90;;;9.50;91.40;;;;;;5115165;28;20707;-39
2021/04/25 06:45:00;;;;;;;19.85;17.30;;;9.60;91.40;;;;;;5115167;28;20739;-40
2021/04/25 06:47:27;;;;;;;20.85;18.08;;;9.70;91.20;;;;;;5115353;28;20285;-40
2021/04/25 06:49:55;;;;;;;18.13;16.20;;;9.80;91.00;;;;;;5114568;28;20213;-40
2021/04/25 06:52:22;;;;;;;18.33;16.05;;;9.90;90.80;;;;;;5115029;28;20229;-41
2021/04/25 06:54:49;;;;;;;18.45;16.25;;;10.10;90.60;;;;;;5114411;28;20206;-42
2021/04/25 06:57:19;;;;;;;19.00;15.57;;;10.30;90.30;;;;;;5114753;28;20571;-43
2021/04/25 06:59:46;;;;;;;19.65;16.90;;;10.40;90.20;;;;;;5114784;28;20237;-41
2021/04/25 07:02:13;;;;;;;21.80;16.20;;;10.40;90.50;;;;;;5114741;27;20233;-41
2021/04/25 07:04:40;;;;;;;23.83;17.77;;;10.40;90.20;;;;;;5114503;28;20308;-42
2021/04/25 07:07:07;;;;;;;22.67;16.95;;;10.40;90.30;;;;;;5114691;27;20209;-43
2021/04/25 07:09:34;;;;;;;19.92;15.80;;;10.50;90.00;;;;;;5114705;28;20301;-42
2021/04/25 07:12:01;;;;;;;21.98;16.83;;;10.70;89.70;;;;;;5114491;28;20324;-42
2021/04/25 07:14:28;;;;;;;20.38;18.27;;;10.80;89.40;;;;;;5114372;28;20250;-42
2021/04/25 07:16:55;;;;;;;17.55;15.80;;;10.80;89.50;;;;;;5114515;28;20686;-43
2021/04/25 07:19:22;;;;;;;18.60;16.17;;;10.70;89.40;;;;;;5114301;27;20683;-43
2021/04/25 07:21:49;;;;;;;18.05;15.75;;;10.70;89.50;;;;;;5114324;28;20567;-43
2021/04/25 07:24:17;;;;;;;21.23;17.60;;;10.70;89.80;;;;;;5114335;28;20210;-41
2021/04/25 07:26:44;;;;;;;18.33;16.13;;;10.70;89.70;;;;;;5114267;28;20660;-41
2021/04/25 07:29:12;;;;;;;20.58;17.77;;;10.70;89.80;;;;;;5114218;28;20234;-40
2021/04/25 07:31:39;;;;;;;19.45;17.40;;;10.70;89.80;;;;;;5114331;28;20274;-40
2021/04/25 07:34:06;;;;;;;18.98;16.55;;;10.80;89.70;;;;;;5114232;28;20206;-43
2021/04/25 07:36:34;;;;;;;18.55;16.58;;;10.90;89.40;;;;;;5114253;28;20221;-41
2021/04/25 07:39:01;;;;;;;19.02;16.63;;;11.00;89.20;;;;;;5114204;28;20289;-40
2021/04/25 07:41:28;;;;;;;21.20;18.38;;;11.20;88.50;;;;;;5114211;28;20229;-42
2021/04/25 07:43:56;;;;;;;19.85;17.23;;;11.40;87.50;;;;;;5113940;28;20302;-41
2021/04/25 07:46:23;;;;;;;19.30;17.30;;;11.70;86.70;;;;;;5114065;28;20233;-43
2021/04/25 07:48:50;;;;;;;19.38;16.45;;;11.70;86.20;;;;;;5113930;28;20210;-46
2021/04/25 07:51:18;;;;;;;20.15;17.27;;;11.80;85.80;;;;;;5113806;28;20297;-43
2021/04/25 07:53:45;;;;;;;18.17;16.38;;;11.90;85.40;;;;;;5114044;28;20240;-47
2021/04/25 07:56:13;;;;;;;18.17;16.05;;;12.00;84.50;;;;;;5114017;28;20206;-45
2021/04/25 07:58:41;;;;;;;19.05;16.55;;;12.00;84.00;;;;;;5113910;28;20227;-46
2021/04/25 08:01:08;;;;;;;17.83;16.08;;;12.10;84.00;;;;;;5113609;28;20206;-44
2021/04/25 08:03:35;;;;;;;17.00;15.23;;;12.10;83.90;;;;;;5113207;28;20571;-44
2021/04/25 08:06:04;;;;;;;19.10;16.20;;;12.10;83.40;;;;;;5113426;28;20238;-46
2021/04/25 08:08:32;;;;;;;23.38;18.55;;;12.20;82.70;;;;;;5113613;28;20206;-45
2021/04/25 08:10:58;;;;;;;20.52;15.82;;;12.40;82.20;;;;;;5113260;28;20298;-44
2021/04/25 08:13:26;;;;;;;19.80;17.08;;;12.60;81.40;;;;;;5113274;28;20229;-46
2021/04/25 08:15:53;;;;;;;17.00;14.85;;;12.70;80.60;;;;;;5113043;28;20309;-46
2021/04/25 08:18:21;;;;;;;17.13;14.52;;;12.70;79.60;;;;;;5113014;28;20202;-47
2021/04/25 08:20:47;;;;;;;19.92;15.68;;;12.70;79.10;;;;;;5112755;28;20202;-45
2021/04/25 08:23:14;;;;;;;19.13;16.92;;;12.70;78.90;;;;;;5112817;28;20240;-47
2021/04/25 08:25:41;;;;;;;17.13;15.27;;;12.70;78.90;;;;;;5112712;28;20296;-47
2021/04/25 08:28:08;;;;;;;21.77;16.75;;;12.70;78.90;;;;;;5112965;28;20305;-43
2021/04/25 08:30:36;;;;;;;18.90;15.77;;;12.70;78.60;;;;;;5112903;28;20208;-43
2021/04/25 08:33:04;;;;;;;20.55;18.35;;;12.80;78.60;;;;;;5113134;28;20776;-42
2021/04/25 08:35:31;;;;;;;20.05;16.27;;;13.00;79.40;;;;;;5113061;28;20210;-41
2021/04/25 08:37:58;;;;;;;18.65;16.20;;;13.10;78.80;;;;;;5112240;28;20206;-41
2021/04/25 08:40:25;;;;;;;16.52;14.75;;;13.10;78.90;;;;;;5112129;28;20213;-41
2021/04/25 08:42:52;;;;;;;17.88;16.00;;;13.20;78.90;;;;;;5112763;28;20675;-43
2021/04/25 08:45:19;;;;;;;19.67;15.55;;;13.30;78.50;;;;;;5112701;28;20298;-41
2021/04/25 08:47:54;;;;;;;18.83;14.10;;;13.40;78.50;;;;;;5112842;28;20229;-41
2021/04/25 08:50:22;;;;;;;15.98;13.02;;;13.50;78.00;;;;;;5112433;28;20664;-43
2021/04/25 08:52:50;;;;;;;15.10;13.50;;;13.60;77.60;;;;;;5112223;28;20198;-43
2021/04/25 08:55:17;;;;;;;14.95;12.52;;;13.70;77.20;;;;;;5112320;28;20206;-43
2021/04/25 08:57:44;;;;;;;19.33;15.00;;;13.70;76.70;;;;;;5112435;28;20297;-44
2021/04/25 09:00:12;;;;;;;17.40;12.23;;;13.70;76.20;;;;;;5112848;28;20212;-44
2021/04/25 09:02:39;;;;;;;19.10;14.77;;;13.60;76.10;;;;;;5112292;28;20261;-44
2021/04/25 09:05:07;;;;;;;15.23;11.52;;;13.70;76.40;;;;;;5112223;28;20241;-44
2021/04/25 09:07:35;;;;;;;14.00;12.50;;;13.70;75.50;;;;;;5112202;28;20224;-44
2021/04/25 09:10:06;;;;;;;12.52;10.98;;;13.80;75.70;;;;;;5110909;28;20570;-42
2021/04/25 09:12:36;;;;;;;14.40;12.23;;;13.70;74.60;;;;;;5112050;28;20665;-42
2021/04/25 09:15:23;;;;;;;14.15;10.90;;;13.70;74.30;;;;;;5111533;28;20232;-43
2021/04/25 09:17:52;;;;;;;13.93;10.98;;;13.80;73.40;;;;;;5112227;28;20316;-50
2021/04/25 09:20:21;;;;;;;13.73;10.40;;;13.80;72.70;;;;;;5112138;28;20216;-43
2021/04/25 09:22:50;;;;;;;14.10;11.10;;;13.70;72.70;;;;;;5111805;28;20320;-41
2021/04/25 09:25:19;;;;;;;11.75;9.85;;;13.70;73.10;;;;;;5111595;28;20271;-41
2021/04/25 09:27:47;;;;;;;12.38;11.15;;;13.70;72.80;;;;;;5111819;28;20214;-44
2021/04/25 09:30:20;;;;;;;15.85;11.77;;;13.70;72.60;;;;;;5111682;28;20209;-45
2021/04/25 09:32:47;;;;;;;15.60;10.43;;;13.70;72.30;;;;;;5112167;28;20208;-44
2021/04/25 09:35:16;;;;;;;12.02;10.82;;;13.70;71.90;;;;;;5112040;28;20308;-39
2021/04/25 09:37:45;;;;;;;11.70;10.48;;;13.70;72.10;;;;;;5112067;28;20254;-39
2021/04/25 09:40:16;;;;;;;13.00;10.88;;;13.70;72.00;;;;;;5112379;28;20253;-40
2021/04/25 09:43:00;;;;;;;10.93;9.63;;;13.70;71.60;;;;;;5112109;28;20399;-40
2021/04/25 09:45:30;;;;;;;13.52;10.35;;;13.80;71.30;;;;;;5112174;28;20245;-39
2021/04/25 09:48:00;;;;;;;11.70;10.48;;;13.80;71.00;;;;;;5111354;28;20292;-44
2021/04/25 09:50:31;;;;;;;14.07;12.18;;;14.00;70.60;;;;;;5112142;28;20672;-41
2021/04/25 09:52:58;;;;;;;14.13;11.25;;;14.10;70.00;;;;;;5111742;28;20206;-41
2021/04/25 09:55:28;;;;;;;12.10;10.75;;;14.20;69.70;;;;;;5111722;28;20233;-42
2021/04/25 09:57:56;;;;;;;11.02;9.60;;;14.30;69.40;;;;;;5111867;28;20293;-42
2021/04/25 10:00:36;;;;;;;11.40;10.23;;;14.30;69.10;;;;;;5111677;28;20313;-42
2021/04/25 10:03:09;;;;;;;10.85;9.68;;;14.40;68.80;;;;;;5112027;28;20320;-42
2021/04/25 10:05:37;;;;;;;17.08;10.45;;;14.30;68.40;;;;;;5111579;28;20237;-44
2021/04/25 10:08:05;;;;;;;11.00;9.65;;;14.30;68.50;;;;;;5111617;28;20297;-45
2021/04/25 10:10:33;;;;;;;12.00;10.60;;;14.20;68.00;;;;;;5111677;28;20618;-45
2021/04/25 10:13:00;;;;;;;13.95;9.75;;;14.20;68.00;;;;;;5111573;28;20377;-47
2021/04/25 10:15:27;;;;;;;11.73;9.45;;;14.20;67.90;;;;;;5111550;28;20300;-46
2021/04/25 10:17:57;;;;;;;14.23;10.38;;;14.20;67.60;;;;;;5112451;28;20622;-47
2021/04/25 10:20:24;;;;;;;11.82;10.68;;;14.10;67.70;;;;;;5111782;28;20685;-46
2021/04/25 10:22:54;;;;;;;11.73;9.98;;;14.10;67.50;;;;;;5112106;28;20318;-47
2021/04/25 10:25:33;;;;;;;12.05;10.82;;;14.20;67.70;;;;;;5112534;28;20202;-48
2021/04/25 10:28:03;;;;;;;11.90;10.70;;;14.20;67.60;;;;;;5115311;28;20297;-51
2021/04/25 10:30:33;;;;;;;12.02;10.48;;;14.30;67.50;;;;;;5115464;27;20301;-48
2021/04/25 10:33:00;;;;;;;12.82;11.52;;;14.40;67.30;;;;;;5115395;28;20526;-46
2021/04/25 10:35:29;;;;;;;14.25;12.32;;;14.50;67.40;;;;;;5115217;28;20235;-41
2021/04/25 10:37:57;;;;;;;13.70;11.25;;;14.50;67.70;;;;;;5115202;28;20255;-43
2021/04/25 10:40:29;;;;;;;15.70;11.10;;;14.50;67.50;;;;;;5115008;28;20210;-44
2021/04/25 10:43:06;;;;;;;11.75;10.02;;;14.70;67.20;;;;;;5114979;28;20222;-47
2021/04/25 10:45:35;;;;;;;16.73;10.10;;;14.80;66.50;;;;;;5115093;28;20212;-44
2021/04/25 10:48:33;;;;;;;11.20;9.10;;;15.00;65.70;;;;;;5115119;28;20210;-44
2021/04/25 10:51:20;;;;;;;14.35;9.63;;;15.10;63.20;;;;;;5114851;28;20690;-44
2021/04/25 10:53:48;;;;;;;10.68;9.57;;;15.10;62.70;;;;;;5115233;28;20342;-45
2021/04/25 10:56:26;;;;;;;13.85;10.95;;;15.00;62.60;;;;;;5114834;28;20572;-44
2021/04/25 10:59:32;;;;;;;14.65;13.07;;;14.90;63.30;;;;;;5114924;28;20208;-44
2021/04/25 11:02:01;;;;;;;13.52;10.98;;;14.90;63.60;;;;;;5114840;28;20297;-42
2021/04/25 11:04:57;;;;;;;12.23;10.88;;;14.90;63.50;;;;;;5114782;28;20288;-42
2021/04/25 11:07:44;;;;;;;12.15;10.27;;;15.00;62.90;;;;;;5114601;28;20252;-42
2021/04/25 11:10:16;;;;;;;13.57;11.77;;;15.00;63.40;;;;;;5114964;28;20292;-43
2021/04/25 11:12:46;;;;;;;11.75;9.68;;;15.00;63.30;;;;;;5114763;27;20300;-42
2021/04/25 11:15:48;;;;;;;8.68;7.70;;;15.10;62.50;;;;;;5114392;28;20206;-42
2021/04/25 11:18:46;;;;;;;13.20;8.48;;;15.20;60.70;;;;;;5114325;28;20296;-42
2021/04/25 11:21:55;;;;;;;9.38;7.72;;;15.30;60.20;;;;;;5114130;28;20306;-43
2021/04/25 11:24:29;;;;;;;8.93;8.02;;;15.20;59.40;;;;;;5112914;28;20254;-44
2021/04/25 11:26:59;;;;;;;13.98;9.80;;;15.20;59.70;;;;;;5113635;28;20641;-44
2021/04/25 11:30:03;;;;;;;9.25;8.30;;;15.20;59.50;;;;;;5114117;28;20297;-44
2021/04/25 11:32:33;;;;;;;10.23;7.97;;;15.30;59.00;;;;;;5114192;28;20609;-45
2021/04/25 11:35:04;;;;;;;12.13;9.68;;;15.30;58.20;;;;;;5114371;28;20546;-44
2021/04/25 11:37:32;;;;;;;7.90;6.63;;;15.50;57.80;;;;;;5113916;28;20214;-43
2021/04/25 11:40:02;;;;;;;10.13;6.50;;;15.60;56.80;;;;;;5113715;28;20629;-45
2021/04/25 11:42:31;;;;;;;8.60;7.13;;;15.60;56.20;;;;;;5113892;28;20294;-44
2021/04/25 11:45:00;;;;;;;12.88;9.52;;;15.60;55.90;;;;;;5113618;28;20206;-48
2021/04/25 11:47:30;;;;;;;7.53;6.00;;;15.60;55.80;;;;;;5113416;28;20714;-43
2021/04/25 11:49:59;;;;;;;7.35;6.65;;;15.60;55.40;;;;;;5113819;28;20206;-44
2021/04/25 11:52:28;;;;;;;9.40;7.68;;;15.70;55.70;;;;;;5113924;28;20209;-43
2021/04/25 11:55:05;;;;;;;7.53;6.15;;;15.80;54.90;;;;;;5113368;28;20297;-43
2021/04/25 11:57:33;;;;;;;9.70;7.18;;;15.90;54.20;;;;;;5113598;28;20289;-43
2021/04/25 12:00:01;;;;;;;7.05;6.13;;;15.90;53.90;;;;;;5113284;28;20242;-44
2021/04/25 12:02:30;;;;;;;7.95;6.18;;;15.90;53.70;;;;;;5112923;28;20226;-44
2021/04/25 12:05:00;;;;;;;9.15;7.57;;;16.00;53.40;;;;;;5113157;28;20298;-45
2021/04/25 12:07:35;;;;;;;8.90;6.50;;;16.00;52.80;;;;;;5113271;28;20233;-43
2021/04/25 12:10:09;;;;;;;5.85;5.28;;;15.90;52.90;;;;;;5113212;28;20628;-43
2021/04/25 12:12:36;;;;;;;8.18;6.03;;;15.90;52.30;;;;;;5113291;28;20205;-44
2021/04/25 12:15:06;;;;;;;8.15;6.28;;;15.80;52.30;;;;;;5113255;28;20206;-42
2021/04/25 12:17:33;;;;;;;7.68;6.63;;;15.80;52.40;;;;;;5113324;28;20240;-44
2021/04/25 12:20:03;;;;;;;7.43;6.60;;;15.80;52.20;;;;;;5113003;28;20210;-43
2021/04/25 12:22:30;;;;;;;6.97;6.30;;;15.90;52.50;;;;;;5112817;28;20363;-44
2021/04/25 12:24:58;;;;;;;6.78;6.18;;;15.80;52.30;;;;;;5113120;28;20322;-43
2021/04/25 12:27:25;;;;;;;7.68;6.88;;;15.80;52.20;;;;;;5113054;28;20300;-46
2021/04/25 12:29:52;;;;;;;6.65;6.03;;;15.90;52.00;;;;;;5112672;28;20673;-44
2021/04/25 12:32:20;;;;;;;7.68;6.80;;;15.90;52.10;;;;;;5112858;28;20588;-44
2021/04/25 12:34:57;;;;;;;7.90;6.28;;;16.00;52.30;;;;;;5112541;28;20263;-47
2021/04/25 12:37:40;;;;;;;10.52;8.60;;;16.00;52.50;;;;;;5112658;28;20212;-44
2021/04/25 12:40:26;;;;;;;7.95;7.15;;;16.00;52.50;;;;;;5112776;28;20292;-44
2021/04/25 12:43:12;;;;;;;9.05;6.82;;;16.00;52.50;;;;;;5112605;28;20230;-44
2021/04/25 12:45:40;;;;;;;11.43;7.15;;;16.00;52.40;;;;;;5112407;28;20208;-43
2021/04/25 12:48:29;;;;;;;7.65;6.95;;;16.00;52.70;;;;;;5112176;28;20253;-44